Terminal Aerodrome Forecast
Issued by NWS Buffalo, NY

Home | Current Version | Previous Version | Text Only | Print | Product List | Glossary On
Versions: 1 2 3 4 5 6 7 8 9 10 11 12 13 14 15 16 17 18 19 20 21 22 23 24 25 26 27 28 29 30 31
000
FTUS41 KBUF 040300 AAC
TAFART
TAF AMD
KART 040343Z 0404/0424 19012G22KT 4SM -FZRA SCT015 BKN025
     FM040700 22014G22KT P6SM VCSH SCT007 OVC015
     FM041200 24014G22KT P6SM SCT015 OVC025
     FM041600 25014G24KT P6SM BKN035
     FM042000 26014G22KT P6SM BKN070
     FM042300 26012KT P6SM BKN250=

USA.gov is the U.S. government's official web portal to all federal, state and local government web resources and services.